Navasota, TX (77868)

3:59 AM CDT on May 29, 2015 (GMT -0500)
Navasota | | Change Station
CLOSE
Current Station
Personal Weather Station
Location: Navasota, TX
Elevation: 302 ft
Nearby Weather Stations
Active Advisory: Flood Warning

Elev 302 ft 30.40 °N, 96.07 °W | Updated 0 second ago

Overcast
Overcast
77.2 °F
Feels Like 78 °F
N
4.0
Wind Variable Wind from SSE
Gusts 4.9 mph

Today
High -- | Low -- °F
--% Chance of Precip.
Yesterday
High -- | Low -- °F
Precip. -- in
6:23 AM 8:20 PM
Waxing Gibbous, 82% visible
Pressure 29.95 in
Visibility 4.0 miles
Clouds Mostly Cloudy 100 ft
Mostly Cloudy 900 ft
Overcast 1500 ft
Heat Index 78 °F
Dew Point 76 °F
Humidity 97%
Rainfall 0.00 in
Snow Depth Not available.
UV 0.0 out of 12
Pollen 5.40 out of 12
Air Quality Not available.
Flu Activity Sporadic
METAR K11R 290835Z AUTO 18009G15KT 4SM +RA BKN001 BKN009 OVC015 25/24 A2995 RMK AO2 LTG DSNT ALQS T02520243

More Conditions Fewer Conditions

Pressure 29.95 in
Visibility 4.0 miles
Clouds Mostly Cloudy 100 ft
Mostly Cloudy 900 ft
Overcast 1500 ft
Heat Index 78 °F
Dew Point 76 °F
Humidity 97%
Rainfall 0.00 in
Snow Depth Not available.
UV 0.0 out of 12
Pollen 5.40 out of 12
Air Quality Not available.
Flu Activity Sporadic
METAR K11R 290835Z AUTO 18009G15KT 4SM +RA BKN001 BKN009 OVC015 25/24 A2995 RMK AO2 LTG DSNT ALQS T02520243

More Conditions Fewer Conditions

10-Day Weather Forecast

Almanac

Astronomy

May. 29, 2015 Rise Set
Actual Time
Civil Twilight
Nautical Twilight
Astronomical Twilight
Moon
Length of Visible Light
Length of Day
Tomorrow will be .
, % of the Moon is Illuminated

Today's Extremes

State Highs State Lows

Community

WunderPhotos

Upload Photos

1,825,221 photos uploaded!

WunderBlogs® & News

Nearby

Air Quality

  Air Quality AQ Index Pollutant
Not available.

Snow Depth

Station Depth Elevation

Earthquake Activity

City Distance Mag. Time & Date
Minimum magnitude displayed is 2.5.

Coastal Water Temperatures

Place Temperature

Stations

Nearby Weather Stations

Station Location Temp. Windchill Dew Point Humidity Wind Precip. Elev Updated Type
                   
Flood Warning
Statement as of 9:28 PM CDT on May 28, 2015

The Flood Warning continues for
the Navasota river near Normangee
* until Tuesday afternoon... or until the warning is cancelled.
* At 0900 PM Thursday the stage was 19.2 feet.
* Moderate flooding is occurring and moderate flooding is forecast.
* Flood stage is 15.0 feet.
* Forecast... the river will continue to fall to below flood stage by early
Tuesday morning... however it will remain above moderate flood levels for next
24 hours.
* At 20.0 feet... major lowland flooding begins with massive inundation of the
flood plain as the river is close to 2 miles wide and osr become inundated one
half mile on the right bank and 1.5 miles on the left bank.


Lat... Lon 3111 9622 3097 9619 3087 9614 3087 9624 3097 9629 3111 9633